Strona główna
METAR-TAF:

METAR-TAF

Lotnisko :

Port lotniczy Adana

Adana, Turcja

Szerokość geograficzna: 36-59N, Długość geograficzna: 035-18E, wysokość: 20 m

Aktualna obserwacja pogody

Raport powstał 34 minut temu, godzina 15:20 UTC
Wiatr 10 kt od południe
Temperatura 17°C
Wilgotność 63%
Ciśnienie 1008 hPa
Widzialność 10 km lub więcej
Rozproszone chmury na wysokości 3000 ft
Przerywane chmury na wysokości 10000 ft

METAR: LTAF 281520Z 19010KT 9999 SCT030 BKN100 17/10 Q1008 TEMPO TL1600 -TSRA

czas: 18:54 (15:54 UTC)


TAF: brakujący

Obserwacja i prognoza pogody dla ponad 4000 lotnisk (raport METAR i TAF).

Dostępne stacje oznaczono żółtymi i czerwonymi punktami na mapie.

Najedź kursorem aby zobaczyć nazwę stacji.

Kliknij aby zobaczyć obserwacje i prognozy pogody.

Aby zmienić mapę: kliknij na zielony przycisk z czarnym krzyżykiem, aby powiększyć; na zielony przycisk z myślnikiem, aby pomniejszyć; na zielone strzałki, aby przejść do map sąsiednich.


METAR-TAF: